Time;durP1;ratioP1;P1;durP2;ratioP2;P2;SDS_P1;SDS_P2;PMS_P1;PMS_P2;Temp;Humidity;BMP_temperature;BMP_pressure;BME280_temperature;BME280_humidity;BME280_pressure;Samples;Min_cycle;Max_cycle;Signal;HPM_P1;HPM_P2
2021/04/12 00:00:37;;;;;;;4.60;4.00;;;3.80;99.90;;;;;;5091603;28;20039;-66
2021/04/12 00:03:18;;;;;;;4.47;4.07;;;3.70;99.90;;;;;;5075576;28;20044;-67
2021/04/12 00:05:46;;;;;;;7.25;4.55;;;3.50;99.90;;;;;;5094680;28;20646;-68
2021/04/12 00:08:39;;;;;;;4.70;4.20;;;3.50;99.90;;;;;;5095017;28;20481;-66
2021/04/12 00:11:39;;;;;;;4.53;4.10;;;3.40;99.90;;;;;;5095343;28;20031;-66
2021/04/12 00:14:20;;;;;;;7.63;5.13;;;3.40;99.90;;;;;;5090647;28;20032;-67
2021/04/12 00:17:02;;;;;;;4.97;4.35;;;3.30;99.90;;;;;;5087185;28;20044;-68
2021/04/12 00:19:58;;;;;;;5.07;4.50;;;3.30;99.90;;;;;;5094243;28;20060;-69
2021/04/12 00:22:38;;;;;;;3.90;3.50;;;3.20;99.90;;;;;;5095019;28;20047;-69
2021/04/12 00:25:25;;;;;;;4.22;3.83;;;3.20;99.90;;;;;;5095095;28;20043;-67
2021/04/12 00:27:58;;;;;;;5.45;4.82;;;3.20;99.90;;;;;;5094280;28;20040;-68
2021/04/12 00:30:38;;;;;;;4.50;4.10;;;3.20;99.90;;;;;;5094947;28;20028;-69
2021/04/12 00:33:11;;;;;;;5.07;4.22;;;3.20;99.90;;;;;;5094908;28;20380;-66
2021/04/12 00:35:48;;;;;;;4.80;4.30;;;3.10;99.90;;;;;;5094337;28;20031;-68
2021/04/12 00:38:28;;;;;;;5.13;4.63;;;3.00;99.90;;;;;;5094802;28;20440;-67
2021/04/12 00:41:22;;;;;;;7.05;5.50;;;3.00;99.90;;;;;;5094242;28;20035;-67
2021/04/12 00:44:08;;;;;;;6.25;5.65;;;2.90;99.90;;;;;;5093821;28;20035;-67
2021/04/12 00:47:05;;;;;;;7.53;6.07;;;2.90;99.90;;;;;;5093606;28;20032;-68
2021/04/12 00:49:37;;;;;;;5.55;4.95;;;2.80;99.90;;;;;;5093424;28;20047;-68
2021/04/12 00:52:36;;;;;;;6.57;5.72;;;2.70;99.90;;;;;;5094645;28;20027;-66
2021/04/12 00:55:14;;;;;;;6.93;6.13;;;2.70;99.90;;;;;;5087369;28;20023;-66
2021/04/12 00:58:17;;;;;;;7.85;6.85;;;2.60;99.90;;;;;;5093749;28;20504;-67
2021/04/12 01:01:11;;;;;;;7.97;6.55;;;2.70;99.90;;;;;;5093890;28;20454;-68
2021/04/12 01:03:48;;;;;;;5.60;4.50;;;2.70;99.90;;;;;;5094355;28;20055;-68
2021/04/12 01:06:43;;;;;;;6.10;5.50;;;2.80;99.90;;;;;;5094107;28;20419;-67
2021/04/12 01:09:17;;;;;;;8.35;6.15;;;2.70;99.90;;;;;;5094078;28;20028;-63
2021/04/12 01:11:43;;;;;;;7.53;6.18;;;2.60;99.90;;;;;;5093431;28;20040;-67
2021/04/12 01:14:27;;;;;;;6.28;5.35;;;2.60;99.90;;;;;;5093892;28;20032;-65
2021/04/12 01:17:08;;;;;;;6.40;5.80;;;2.60;99.90;;;;;;5094247;28;20046;-67
2021/04/12 01:19:59;;;;;;;7.13;6.20;;;2.60;99.90;;;;;;5092475;28;20032;-67
2021/04/12 01:22:39;;;;;;;;;;;2.60;99.90;;;;;;5094289;28;20055;-67
2021/04/12 01:25:42;;;;;;;7.35;6.03;;;2.60;99.90;;;;;;5094012;28;19915;-66
2021/04/12 01:28:45;;;;;;;8.77;6.85;;;2.50;99.90;;;;;;5086656;28;20111;-66
2021/04/12 01:31:43;;;;;;;7.93;6.47;;;2.40;99.90;;;;;;5093518;28;20421;-67
2021/04/12 01:34:23;;;;;;;8.43;7.05;;;2.40;99.90;;;;;;5093707;28;20043;-67
2021/04/12 01:36:49;;;;;;;10.23;7.93;;;2.40;99.90;;;;;;5092579;28;20024;-67
2021/04/12 01:39:41;;;;;;;9.27;7.25;;;2.40;99.90;;;;;;5093518;28;20354;-66
2021/04/12 01:42:31;;;;;;;8.77;7.82;;;2.30;99.90;;;;;;5093633;28;20032;-63
2021/04/12 01:45:21;;;;;;;10.68;8.02;;;2.30;99.90;;;;;;5075450;28;20031;-66
2021/04/12 01:48:15;;;;;;;11.02;7.47;;;2.30;99.90;;;;;;5079795;28;20031;-63
2021/04/12 01:51:07;;;;;;;10.77;7.60;;;2.40;99.90;;;;;;5092658;28;20390;-66
2021/04/12 01:53:57;;;;;;;9.77;7.30;;;2.40;99.90;;;;;;5092474;28;20449;-62
2021/04/12 01:56:41;;;;;;;;;;;2.30;99.90;;;;;;5093804;28;20028;-67
2021/04/12 01:59:49;;;;;;;9.95;8.00;;;2.30;99.90;;;;;;5093751;28;19908;-65
2021/04/12 02:02:42;;;;;;;9.50;7.55;;;2.30;99.90;;;;;;5091206;28;20024;-67
2021/04/12 02:05:30;;;;;;;12.30;7.60;;;2.30;99.90;;;;;;5093165;28;20021;-65
2021/04/12 02:08:02;;;;;;;11.55;8.27;;;2.30;99.90;;;;;;5093221;28;20047;-65
2021/04/12 02:10:39;;;;;;;8.93;7.60;;;2.30;99.90;;;;;;5092924;28;20101;-67
2021/04/12 02:13:26;;;;;;;13.45;9.60;;;2.30;99.90;;;;;;5074512;28;20024;-62
2021/04/12 02:16:13;;;;;;;12.57;9.25;;;;;;;;;;5091771;28;20493;-66
2021/04/12 02:18:50;;;;;;;13.07;9.45;;;2.10;99.90;;;;;;5073742;28;20032;-65
2021/04/12 02:22:15;;;;;;;12.45;8.40;;;2.10;99.90;;;;;;5074417;28;20469;-66
2021/04/12 02:25:04;;;;;;;9.57;8.18;;;2.10;99.90;;;;;;4998131;28;20034;-67
2021/04/12 02:27:48;;;;;;;9.90;8.25;;;2.10;99.90;;;;;;4991109;28;20041;-68
2021/04/12 02:30:19;;;;;;;12.50;9.00;;;2.10;99.90;;;;;;5063899;28;20035;-66
2021/04/12 02:33:10;;;;;;;12.20;9.15;;;2.00;99.90;;;;;;5091546;28;20040;-63
2021/04/12 02:35:55;;;;;;;12.15;8.00;;;2.00;99.90;;;;;;5091655;28;20546;-67
2021/04/12 02:38:44;;;;;;;10.45;8.43;;;2.20;99.90;;;;;;5085787;28;20024;-67
2021/04/12 02:41:37;;;;;;;9.57;7.95;;;2.10;99.90;;;;;;5092658;28;20126;-65
2021/04/12 02:44:28;;;;;;;11.38;8.35;;;2.10;99.90;;;;;;5092222;28;20032;-65
2021/04/12 02:47:06;;;;;;;13.40;9.75;;;2.10;99.90;;;;;;5092270;28;20028;-67
2021/04/12 02:49:43;;;;;;;12.55;9.27;;;2.00;99.90;;;;;;5084742;28;20035;-68
2021/04/12 02:52:18;;;;;;;14.82;9.52;;;2.10;99.90;;;;;;5085266;28;20039;-66
2021/04/12 02:55:11;;;;;;;12.20;9.35;;;2.00;99.90;;;;;;5091222;28;20427;-67
2021/04/12 02:57:57;;;;;;;16.00;10.25;;;2.00;99.90;;;;;;5087130;28;20036;-67
2021/04/12 03:00:37;;;;;;;15.52;10.13;;;2.00;99.90;;;;;;5092361;28;20032;-67
2021/04/12 03:03:20;;;;;;;13.20;9.27;;;2.00;99.90;;;;;;5091541;28;20111;-66
2021/04/12 03:06:06;;;;;;;13.73;10.55;;;2.10;99.90;;;;;;5091380;28;20266;-66
2021/04/12 03:08:41;;;;;;;16.13;10.90;;;2.00;99.90;;;;;;5053577;28;20040;-67
2021/04/12 03:11:25;;;;;;;14.20;10.15;;;2.00;99.90;;;;;;5092186;28;20024;-67
2021/04/12 03:14:28;;;;;;;14.15;11.02;;;2.10;99.90;;;;;;5091102;28;20032;-67
2021/04/12 03:17:11;;;;;;;16.48;10.98;;;2.00;99.90;;;;;;5091370;28;20115;-66
2021/04/12 03:20:15;;;;;;;14.32;9.80;;;2.00;99.90;;;;;;5091164;28;20119;-67
2021/04/12 03:22:43;;;;;;;12.63;8.82;;;2.10;99.90;;;;;;5087254;28;20052;-66
2021/04/12 03:25:34;;;;;;;15.32;9.18;;;2.10;99.90;;;;;;5090025;28;20077;-67
2021/04/12 03:28:21;;;;;;;11.80;8.05;;;2.10;99.90;;;;;;5091107;28;20067;-65
2021/04/12 03:31:01;;;;;;;12.77;9.23;;;2.10;99.90;;;;;;5090923;28;20031;-66
2021/04/12 03:33:46;;;;;;;10.82;7.95;;;2.00;99.90;;;;;;5090853;28;20373;-66
2021/04/12 03:36:44;;;;;;;11.20;8.55;;;2.00;99.90;;;;;;5073207;28;20035;-66
2021/04/12 03:39:18;;;;;;;11.75;8.05;;;2.00;99.90;;;;;;5083797;28;20489;-64
2021/04/12 03:42:02;;;;;;;12.85;8.98;;;2.10;99.90;;;;;;5090847;28;20154;-66
2021/04/12 03:44:49;;;;;;;12.65;8.07;;;2.00;99.90;;;;;;5091293;28;20107;-65
2021/04/12 03:47:48;;;;;;;12.98;8.77;;;2.00;99.90;;;;;;5086538;28;20054;-66
2021/04/12 03:50:22;;;;;;;13.25;8.40;;;2.00;99.90;;;;;;5084909;28;20040;-65
2021/04/12 03:52:58;;;;;;;11.88;9.20;;;2.10;99.90;;;;;;5090232;28;20093;-64
2021/04/12 03:55:38;;;;;;;12.57;9.10;;;2.00;99.90;;;;;;5091280;28;20052;-66
2021/04/12 03:58:18;;;;;;;14.13;9.00;;;2.00;99.90;;;;;;5091353;28;20131;-66
2021/04/12 04:01:09;;;;;;;13.40;8.43;;;1.90;99.90;;;;;;5090361;28;20496;-66
2021/04/12 04:03:37;;;;;;;;;;;2.00;99.90;;;;;;5085179;28;20426;-67
2021/04/12 04:06:17;;;;;;;13.07;8.52;;;2.10;99.90;;;;;;5091152;28;19908;-62
2021/04/12 04:09:22;;;;;;;16.70;9.20;;;2.00;99.90;;;;;;5090511;28;20109;-65
2021/04/12 04:12:25;;;;;;;13.35;9.40;;;2.00;99.90;;;;;;5084489;28;20149;-64
2021/04/12 04:15:05;;;;;;;12.82;8.35;;;2.00;99.90;;;;;;5090107;28;20059;-63
2021/04/12 04:17:49;;;;;;;11.55;8.75;;;2.00;99.90;;;;;;5090479;28;20024;-67
2021/04/12 04:20:38;;;;;;;13.98;9.85;;;2.00;99.90;;;;;;5090751;28;20032;-65
2021/04/12 04:23:28;;;;;;;14.98;10.27;;;2.00;99.90;;;;;;5091028;28;20115;-64
2021/04/12 04:26:15;;;;;;;15.77;10.68;;;2.00;99.90;;;;;;5089979;28;20020;-65
2021/04/12 04:28:52;;;;;;;15.82;9.65;;;2.00;99.90;;;;;;5089833;28;20043;-66
2021/04/12 04:31:34;;;;;;;16.88;12.02;;;1.90;99.90;;;;;;5091640;28;20028;-65
2021/04/12 04:34:17;;;;;;;14.07;10.48;;;2.00;99.90;;;;;;5090235;28;20077;-65
2021/04/12 04:37:33;;;;;;;16.23;10.70;;;2.10;99.90;;;;;;5090425;28;20054;-66
2021/04/12 04:40:33;;;;;;;17.38;11.95;;;2.00;99.90;;;;;;5062702;28;20101;-66
2021/04/12 04:43:29;;;;;;;19.25;12.23;;;2.00;99.90;;;;;;5049277;28;20507;-66
2021/04/12 04:46:09;;;;;;;17.85;11.27;;;2.00;99.90;;;;;;5090079;28;20105;-66
2021/04/12 04:48:53;;;;;;;19.08;12.20;;;2.00;99.90;;;;;;5068383;28;20465;-67
2021/04/12 04:51:42;;;;;;;15.30;11.05;;;2.00;99.90;;;;;;5094009;28;20036;-65
2021/04/12 04:54:45;;;;;;;20.90;11.85;;;1.90;99.90;;;;;;5059824;28;20051;-66
2021/04/12 04:57:18;;;;;;;14.13;10.15;;;1.90;99.90;;;;;;5094552;28;20028;-67
2021/04/12 05:00:25;;;;;;;13.95;10.55;;;1.90;99.90;;;;;;5093368;28;20032;-66
2021/04/12 05:03:14;;;;;;;13.90;9.00;;;1.80;99.90;;;;;;5063034;28;20048;-66
2021/04/12 05:06:07;;;;;;;11.85;8.25;;;1.90;99.90;;;;;;5093271;28;20055;-66
2021/04/12 05:09:10;;;;;;;12.95;8.52;;;1.90;99.90;;;;;;5094282;28;20039;-66
2021/04/12 05:11:42;;;;;;;12.98;9.15;;;1.80;99.90;;;;;;5093155;28;20477;-67
2021/04/12 05:14:45;;;;;;;12.57;9.85;;;1.70;99.90;;;;;;5093139;28;20520;-66
2021/04/12 05:17:38;;;;;;;13.82;10.02;;;1.60;99.90;;;;;;5094128;28;20115;-66
2021/04/12 05:20:22;;;;;;;13.10;9.85;;;1.50;99.90;;;;;;5093815;28;20546;-66
2021/04/12 05:22:57;;;;;;;12.70;9.63;;;1.60;99.90;;;;;;5087283;28;20376;-66
2021/04/12 05:26:00;;;;;;;18.15;11.90;;;1.60;99.90;;;;;;5093750;28;20032;-66
2021/04/12 05:28:59;;;;;;;13.57;10.23;;;1.60;99.90;;;;;;5093970;28;20043;-66
2021/04/12 05:32:01;;;;;;;16.17;11.07;;;1.70;99.90;;;;;;5093814;28;20093;-66
2021/04/12 05:34:39;;;;;;;17.77;12.63;;;1.70;99.90;;;;;;5075481;28;20376;-66
2021/04/12 05:37:32;;;;;;;19.25;12.75;;;1.60;99.90;;;;;;5075508;28;20110;-65
2021/04/12 05:40:12;;;;;;;19.38;13.10;;;1.60;99.90;;;;;;5092519;28;20032;-64
2021/04/12 05:43:01;;;;;;;17.75;12.63;;;1.50;99.90;;;;;;5092844;28;20024;-67
2021/04/12 05:45:38;;;;;;;22.55;13.95;;;1.50;99.90;;;;;;5088041;28;20028;-65
2021/04/12 05:48:29;;;;;;;20.55;14.45;;;1.50;99.90;;;;;;5093473;28;20060;-64
2021/04/12 05:51:35;;;;;;;21.10;15.18;;;1.50;99.90;;;;;;5091168;28;20084;-66
2021/04/12 05:54:00;;;;;;;24.83;16.25;;;1.40;99.90;;;;;;5085905;28;20032;-66
2021/04/12 05:56:36;;;;;;;21.08;15.15;;;1.40;99.90;;;;;;5084409;28;20496;-66
2021/04/12 05:59:22;;;;;;;24.10;15.57;;;1.50;99.90;;;;;;5091997;28;20039;-65
2021/04/12 06:02:06;;;;;;;25.38;16.63;;;1.50;99.90;;;;;;5087947;28;20043;-65
2021/04/12 06:04:51;;;;;;;26.02;15.70;;;1.50;99.90;;;;;;5073784;28;20024;-65
2021/04/12 06:07:53;;;;;;;26.02;17.13;;;1.50;99.90;;;;;;5092697;28;20105;-66
2021/04/12 06:10:39;;;;;;;26.77;16.33;;;1.60;99.90;;;;;;5092197;28;20115;-65
2021/04/12 06:13:17;;;;;;;28.33;17.23;;;1.60;99.90;;;;;;5051778;28;20036;-65
2021/04/12 06:16:13;;;;;;;23.88;16.23;;;1.70;99.90;;;;;;5091625;28;20047;-65
2021/04/12 06:19:00;;;;;;;23.83;16.05;;;1.80;99.90;;;;;;5077868;28;20040;-65
2021/04/12 06:21:44;;;;;;;23.27;15.07;;;1.80;99.90;;;;;;5086938;28;20589;-62
2021/04/12 06:24:22;;;;;;;23.35;15.95;;;1.90;99.90;;;;;;5091597;28;20119;-63
2021/04/12 06:27:24;;;;;;;25.42;16.00;;;1.90;99.90;;;;;;5090570;28;20477;-65
2021/04/12 06:30:12;;;;;;;23.05;15.70;;;2.00;99.90;;;;;;5087325;28;20032;-65
2021/04/12 06:32:56;;;;;;;23.60;15.52;;;2.00;99.90;;;;;;5091971;28;20024;-66
2021/04/12 06:35:37;;;;;;;20.40;14.57;;;2.10;99.90;;;;;;5091361;28;20469;-66
2021/04/12 06:38:13;;;;;;;18.92;13.82;;;2.20;99.90;;;;;;5090257;28;20028;-66
2021/04/12 06:40:51;;;;;;;20.98;14.45;;;2.30;99.90;;;;;;5091622;28;20031;-67
2021/04/12 06:43:54;;;;;;;19.85;13.20;;;2.30;99.90;;;;;;5091529;28;20357;-66
2021/04/12 06:46:31;;;;;;;18.40;12.30;;;2.40;99.90;;;;;;5090474;28;20049;-65
2021/04/12 06:49:00;;;;;;;19.48;13.23;;;2.40;99.90;;;;;;5090543;28;20028;-65
2021/04/12 06:52:10;;;;;;;18.05;13.13;;;2.40;99.90;;;;;;5086197;28;20036;-65
2021/04/12 06:54:41;;;;;;;19.17;13.23;;;2.50;99.90;;;;;;5086548;28;20105;-66
2021/04/12 06:57:31;;;;;;;17.85;13.00;;;2.50;99.90;;;;;;5090700;28;20393;-66
2021/04/12 07:00:18;;;;;;;19.15;12.98;;;2.50;99.90;;;;;;5090481;28;20063;-66
2021/04/12 07:03:18;;;;;;;16.10;12.52;;;2.50;99.90;;;;;;5072083;28;20059;-66
2021/04/12 07:06:21;;;;;;;17.25;12.32;;;2.60;99.90;;;;;;5072509;28;20163;-66
2021/04/12 07:09:01;;;;;;;17.50;12.88;;;2.70;99.90;;;;;;5090015;28;20028;-66
2021/04/12 07:11:39;;;;;;;19.30;12.35;;;2.70;99.90;;;;;;5090851;28;20119;-66
2021/04/12 07:14:29;;;;;;;18.00;12.65;;;2.70;99.90;;;;;;5090348;28;20020;-62
2021/04/12 07:17:25;;;;;;;20.75;13.25;;;2.60;99.90;;;;;;5089997;28;20044;-66
2021/04/12 07:20:09;;;;;;;16.60;12.18;;;2.70;99.90;;;;;;5090003;28;20028;-66
2021/04/12 07:23:12;;;;;;;19.45;12.63;;;2.70;99.90;;;;;;5090024;28;20658;-66
2021/04/12 07:25:59;;;;;;;17.63;12.82;;;2.70;99.90;;;;;;5085940;28;20032;-66
2021/04/12 07:28:43;;;;;;;19.25;13.90;;;2.70;99.90;;;;;;5090850;28;20032;-65
2021/04/12 07:31:27;;;;;;;24.15;14.25;;;2.70;99.90;;;;;;5072343;28;20431;-65
2021/04/12 07:34:21;;;;;;;19.77;14.10;;;2.70;99.90;;;;;;5089952;28;20055;-64
2021/04/12 07:37:20;;;;;;;24.05;15.85;;;2.70;99.90;;;;;;5090351;28;20024;-65
2021/04/12 07:39:54;;;;;;;21.77;13.87;;;2.70;99.90;;;;;;5090585;28;20067;-66
2021/04/12 07:42:54;;;;;;;30.17;15.45;;;2.70;99.90;;;;;;5091370;28;20036;-65
2021/04/12 07:46:05;;;;;;;21.63;14.73;;;2.80;99.90;;;;;;5091341;28;20092;-65
2021/04/12 07:48:45;;;;;;;;;;;2.80;99.90;;;;;;5075140;28;20016;-65
2021/04/12 07:51:49;;;;;;;23.85;15.52;;;2.80;99.90;;;;;;5065025;28;19915;-65
2021/04/12 07:54:17;;;;;;;20.63;14.60;;;2.90;99.90;;;;;;5089118;28;20449;-65
2021/04/12 07:57:02;;;;;;;21.67;14.82;;;3.00;99.90;;;;;;5089903;28;20035;-67
2021/04/12 08:00:04;;;;;;;21.60;14.10;;;3.20;99.90;;;;;;5090252;28;20028;-65
2021/04/12 08:02:49;;;;;;;22.40;13.98;;;3.20;99.90;;;;;;5089241;28;20042;-65
2021/04/12 08:05:36;;;;;;;21.95;14.18;;;3.40;99.90;;;;;;5083835;28;20028;-65
2021/04/12 08:08:35;;;;;;;18.20;13.77;;;3.50;99.90;;;;;;5089621;28;20028;-65
2021/04/12 08:11:42;;;;;;;21.67;14.23;;;3.60;99.90;;;;;;5089399;28;20024;-69
2021/04/12 08:14:35;;;;;;;24.15;14.73;;;3.60;99.90;;;;;;5049199;28;20047;-65
2021/04/12 08:17:38;;;;;;;23.55;15.38;;;3.60;99.90;;;;;;5078605;28;20044;-65
2021/04/12 08:20:31;;;;;;;21.83;14.25;;;3.70;99.90;;;;;;5087280;28;20035;-62
2021/04/12 08:23:35;;;;;;;24.17;14.90;;;3.90;99.90;;;;;;5093066;28;20108;-65
2021/04/12 08:26:04;;;;;;;21.35;15.90;;;4.00;99.90;;;;;;5092402;28;20031;-65
2021/04/12 08:29:04;;;;;;;20.73;13.93;;;4.10;99.90;;;;;;5093804;28;20032;-66
2021/04/12 08:31:47;;;;;;;23.45;13.85;;;4.30;99.90;;;;;;5090477;28;20438;-65
2021/04/12 08:34:31;;;;;;;21.30;15.48;;;4.40;99.90;;;;;;5094453;28;20103;-65
2021/04/12 08:37:04;;;;;;;20.08;15.52;;;4.30;99.90;;;;;;5092850;28;20362;-66
2021/04/12 08:39:45;;;;;;;26.85;15.80;;;4.40;99.90;;;;;;5093996;28;20115;-65
2021/04/12 08:42:12;;;;;;;19.73;13.98;;;4.30;99.90;;;;;;5093737;28;20032;-65
2021/04/12 08:45:12;;;;;;;20.58;14.60;;;4.40;99.90;;;;;;5094211;28;20102;-61
2021/04/12 08:47:56;;;;;;;19.85;13.18;;;4.40;99.90;;;;;;5052464;28;20042;-63
2021/04/12 08:50:31;;;;;;;17.65;13.20;;;4.40;99.90;;;;;;5095320;28;20448;-64
2021/04/12 08:53:14;;;;;;;19.63;12.68;;;4.50;99.90;;;;;;5095988;28;20098;-64
2021/04/12 08:55:58;;;;;;;18.08;13.05;;;4.60;99.90;;;;;;5095556;28;20384;-64
2021/04/12 08:58:45;;;;;;;15.90;12.90;;;4.70;99.90;;;;;;5095927;28;20119;-63
2021/04/12 09:01:29;;;;;;;17.13;12.00;;;4.70;99.10;;;;;;5097080;28;20023;-65
2021/04/12 09:04:36;;;;;;;16.02;12.15;;;4.70;99.90;;;;;;5101804;28;20024;-65
2021/04/12 09:07:17;;;;;;;12.75;10.07;;;4.80;99.70;;;;;;5099585;28;20178;-64
2021/04/12 09:09:55;;;;;;;15.82;10.77;;;4.90;95.50;;;;;;5093910;28;20107;-66
2021/04/12 09:12:39;;;;;;;15.27;10.93;;;4.80;97.50;;;;;;5087297;28;20089;-65
2021/04/12 09:15:33;;;;;;;14.90;10.07;;;4.80;97.60;;;;;;5077163;28;20492;-64
2021/04/12 09:18:17;;;;;;;14.98;10.82;;;4.70;96.50;;;;;;5091014;28;20531;-64
2021/04/12 09:21:15;;;;;;;16.58;11.25;;;4.70;95.50;;;;;;5089080;28;20058;-65
2021/04/12 09:24:02;;;;;;;16.15;9.98;;;4.70;99.00;;;;;;5060437;28;20468;-65
2021/04/12 09:27:04;;;;;;;18.92;12.48;;;4.90;92.30;;;;;;5096336;28;20032;-64
2021/04/12 09:29:52;;;;;;;15.57;10.73;;;4.90;95.80;;;;;;5098731;28;20039;-64
2021/04/12 09:32:59;;;;;;;17.92;10.90;;;5.00;94.20;;;;;;5101153;28;20039;-64
2021/04/12 09:35:51;;;;;;;18.50;10.98;;;5.30;90.90;;;;;;5059961;28;20044;-65
2021/04/12 09:38:44;;;;;;;18.65;10.57;;;5.30;92.10;;;;;;5097028;28;20079;-65
2021/04/12 09:41:47;;;;;;;13.02;9.73;;;5.50;91.50;;;;;;5095599;28;20036;-66
2021/04/12 09:44:43;;;;;;;12.00;8.98;;;5.60;90.20;;;;;;5076987;28;20113;-66
2021/04/12 09:47:33;;;;;;;10.90;7.43;;;5.70;90.00;;;;;;5091512;28;20063;-65
2021/04/12 09:50:36;;;;;;;12.88;7.70;;;5.80;84.70;;;;;;5094827;28;20039;-66
2021/04/12 09:53:33;;;;;;;9.23;7.55;;;5.70;85.90;;;;;;5083318;28;20055;-66
2021/04/12 09:56:23;;;;;;;8.63;6.72;;;5.70;86.80;;;;;;5085026;28;20020;-68
2021/04/12 09:59:19;;;;;;;13.40;5.88;;;5.80;80.50;;;;;;5091687;28;20032;-64
2021/04/12 10:02:06;;;;;;;9.90;5.50;;;5.90;78.10;;;;;;5093827;28;20035;-65
2021/04/12 10:05:25;;;;;;;10.40;6.45;;;5.90;77.20;;;;;;5090254;28;20036;-63
2021/04/12 10:07:58;;;;;;;9.05;6.50;;;5.90;77.90;;;;;;5075369;28;20479;-66
2021/04/12 10:10:42;;;;;;;8.88;5.85;;;6.00;79.30;;;;;;5089987;28;20136;-61
2021/04/12 10:13:33;;;;;;;7.10;4.93;;;6.10;75.10;;;;;;5091729;28;20246;-65
2021/04/12 10:15:58;;;;;;;7.20;6.20;;;6.10;76.80;;;;;;5091430;28;20084;-65
2021/04/12 10:18:46;;;;;;;13.88;6.22;;;6.00;80.00;;;;;;5074419;28;20589;-64
2021/04/12 10:21:39;;;;;;;6.53;4.68;;;6.10;80.00;;;;;;5091390;28;20082;-64
2021/04/12 10:24:20;;;;;;;8.65;4.70;;;6.20;72.40;;;;;;5091332;28;20028;-66
2021/04/12 10:26:55;;;;;;;9.00;4.28;;;6.20;73.40;;;;;;5091859;28;20032;-65
2021/04/12 10:29:45;;;;;;;5.95;4.97;;;6.20;71.50;;;;;;5091794;28;20034;-64
2021/04/12 10:32:21;;;;;;;9.40;4.00;;;6.10;75.60;;;;;;5091400;28;20043;-65
2021/04/12 10:34:48;;;;;;;7.85;3.90;;;6.20;74.60;;;;;;5091704;28;20404;-67
2021/04/12 10:37:17;;;;;;;7.80;3.50;;;6.40;69.50;;;;;;5091863;28;20058;-66
2021/04/12 10:40:07;;;;;;;5.80;2.80;;;6.60;68.80;;;;;;5091170;28;20321;-66
2021/04/12 10:42:36;;;;;;;7.38;3.00;;;6.80;66.20;;;;;;5091693;28;20035;-66
2021/04/12 10:45:08;;;;;;;5.65;2.78;;;7.10;67.70;;;;;;5090617;28;20326;-67
2021/04/12 10:47:52;;;;;;;5.35;3.28;;;7.30;66.80;;;;;;5092013;28;20020;-66
2021/04/12 10:50:36;;;;;;;3.03;2.72;;;7.40;65.10;;;;;;5091508;28;20038;-65
2021/04/12 10:53:28;;;;;;;5.25;3.38;;;7.50;62.60;;;;;;5090534;28;20085;-66
2021/04/12 10:56:16;;;;;;;3.75;2.53;;;7.40;64.90;;;;;;5090628;28;20354;-65
2021/04/12 10:59:19;;;;;;;8.05;2.60;;;7.50;62.80;;;;;;5090684;28;20491;-66
2021/04/12 11:02:09;;;;;;;5.53;2.42;;;7.70;64.30;;;;;;5088298;28;20048;-66
2021/04/12 11:04:46;;;;;;;5.40;2.70;;;7.90;62.10;;;;;;5090699;28;20107;-65
2021/04/12 11:07:13;;;;;;;4.07;2.85;;;7.90;63.00;;;;;;5089661;28;20475;-63
2021/04/12 11:10:00;;;;;;;5.13;3.00;;;8.00;61.50;;;;;;5072673;28;20358;-61
2021/04/12 11:13:01;;;;;;;4.60;2.70;;;8.00;61.70;;;;;;5084647;28;21378;-63
2021/04/12 11:16:14;;;;;;;6.32;2.88;;;8.00;62.80;;;;;;5082826;28;20044;-63
2021/04/12 11:19:03;;;;;;;5.13;2.30;;;7.90;63.20;;;;;;5056985;28;20036;-63
2021/04/12 11:22:05;;;;;;;3.63;2.00;;;8.10;60.90;;;;;;5074107;28;20507;-63
2021/04/12 11:24:56;;;;;;;4.55;2.00;;;8.20;58.40;;;;;;5089491;28;20071;-64
2021/04/12 11:27:40;;;;;;;;;;;8.40;59.70;;;;;;5083795;28;20028;-63
2021/04/12 11:30:30;;;;;;;3.15;1.90;;;8.40;56.80;;;;;;5089839;28;19908;-63
2021/04/12 11:33:20;;;;;;;7.88;2.47;;;8.40;57.10;;;;;;5080621;28;20496;-63
2021/04/12 11:36:04;;;;;;;;;;;8.10;58.00;;;;;;5084739;28;20035;-63
2021/04/12 11:38:34;;;;;;;6.13;2.72;;;7.80;60.00;;;;;;5090957;28;19908;-63
2021/04/12 11:41:08;;;;;;;5.70;2.07;;;7.60;58.80;;;;;;5090844;28;20032;-63
2021/04/12 11:43:38;;;;;;;3.55;2.28;;;7.40;61.30;;;;;;5084326;28;20301;-63
2021/04/12 11:46:16;;;;;;;3.25;1.60;;;7.50;62.60;;;;;;5088693;28;20024;-63
2021/04/12 11:48:51;;;;;;;4.88;1.85;;;7.70;57.30;;;;;;5090168;28;20043;-63
2021/04/12 11:52:05;;;;;;;3.05;1.98;;;8.00;55.50;;;;;;5090031;28;20086;-63
2021/04/12 11:54:42;;;;;;;4.32;2.30;;;8.20;58.70;;;;;;5006761;28;20065;-63
2021/04/12 11:57:38;;;;;;;3.42;1.92;;;8.50;53.50;;;;;;4999325;28;20494;-63
2021/04/12 12:00:29;;;;;;;2.78;1.83;;;8.80;52.60;;;;;;5003241;28;20054;-64
2021/04/12 12:03:14;;;;;;;2.88;1.77;;;8.80;55.20;;;;;;4996183;28;20541;-65
2021/04/12 12:06:05;;;;;;;5.18;1.67;;;9.00;52.90;;;;;;4999624;28;20066;-62
2021/04/12 12:08:57;;;;;;;4.53;2.13;;;9.10;52.60;;;;;;4990056;28;20128;-62
2021/04/12 12:11:39;;;;;;;2.95;1.60;;;9.20;51.50;;;;;;5008859;28;20116;-63
2021/04/12 12:14:17;;;;;;;3.88;2.10;;;9.10;54.10;;;;;;4997482;28;20373;-63
2021/04/12 12:16:44;;;;;;;2.85;1.80;;;9.20;52.60;;;;;;5000500;28;20081;-63
2021/04/12 12:19:37;;;;;;;7.38;2.45;;;9.20;54.90;;;;;;4997355;28;20546;-63
2021/04/12 12:22:30;;;;;;;3.78;1.80;;;9.10;53.20;;;;;;5007244;28;20511;-62
2021/04/12 12:25:34;;;;;;;3.00;1.42;;;8.80;53.40;;;;;;5030705;28;20451;-65
2021/04/12 12:28:10;;;;;;;2.65;1.52;;;8.50;54.10;;;;;;5080673;28;20396;-63
2021/04/12 12:30:43;;;;;;;6.75;2.00;;;8.30;53.10;;;;;;5093950;28;20024;-63
2021/04/12 12:33:36;;;;;;;7.28;1.98;;;8.10;55.60;;;;;;5093430;28;20063;-63
2021/04/12 12:36:21;;;;;;;4.20;1.90;;;8.00;55.20;;;;;;5092379;28;20048;-64
2021/04/12 12:39:01;;;;;;;4.93;1.65;;;8.00;57.40;;;;;;5094296;28;20024;-63
2021/04/12 12:41:34;;;;;;;;;;;8.10;53.60;;;;;;5087948;28;20032;-63
2021/04/12 12:44:04;;;;;;;3.38;1.30;;;8.20;52.10;;;;;;5092728;28;20376;-63
2021/04/12 12:46:33;;;;;;;2.38;1.40;;;8.40;51.90;;;;;;5093574;28;20181;-62
2021/04/12 12:49:23;;;;;;;2.47;1.30;;;8.90;50.90;;;;;;5093187;28;20081;-64
2021/04/12 12:51:59;;;;;;;4.03;1.65;;;9.70;51.00;;;;;;5076455;28;20083;-63
2021/04/12 12:54:30;;;;;;;2.05;1.60;;;10.00;48.60;;;;;;5093342;28;20028;-64
2021/04/12 12:57:09;;;;;;;6.63;1.55;;;10.10;47.70;;;;;;5093610;28;20038;-66
2021/04/12 12:59:42;;;;;;;5.45;1.75;;;10.00;47.80;;;;;;5093546;28;20059;-64
2021/04/12 13:02:26;;;;;;;4.75;1.45;;;9.90;48.80;;;;;;5092419;28;20488;-64
2021/04/12 13:05:19;;;;;;;2.05;1.27;;;9.90;49.50;;;;;;5093196;28;20052;-64
2021/04/12 13:07:48;;;;;;;4.53;1.52;;;10.20;48.20;;;;;;5092884;28;20062;-63
2021/04/12 13:10:32;;;;;;;4.13;1.35;;;10.70;48.00;;;;;;5092365;28;20030;-63
2021/04/12 13:12:58;;;;;;;4.50;1.25;;;11.10;45.20;;;;;;5074137;28;20059;-66
2021/04/12 13:15:26;;;;;;;5.00;1.83;;;11.20;44.60;;;;;;5092156;28;20119;-63
2021/04/12 13:18:02;;;;;;;7.07;2.63;;;10.80;45.40;;;;;;5093542;28;20036;-64
2021/04/12 13:20:40;;;;;;;2.85;1.40;;;10.40;47.10;;;;;;5093096;28;20024;-64
2021/04/12 13:23:29;;;;;;;4.28;1.70;;;9.90;46.20;;;;;;5091678;28;20520;-63
2021/04/12 13:25:57;;;;;;;6.03;1.83;;;9.70;48.40;;;;;;5092586;28;20506;-64
2021/04/12 13:28:36;;;;;;;2.20;1.00;;;9.60;47.10;;;;;;5092256;28;20036;-61
2021/04/12 13:31:10;;;;;;;2.17;1.00;;;9.70;44.60;;;;;;5090301;28;20027;-63
2021/04/12 13:33:41;;;;;;;3.25;0.90;;;10.20;42.00;;;;;;5092784;28;20430;-62
2021/04/12 13:36:16;;;;;;;2.67;1.25;;;10.50;42.70;;;;;;5092179;28;20031;-64
2021/04/12 13:38:43;;;;;;;1.88;1.30;;;10.70;44.90;;;;;;5093046;28;20105;-62
2021/04/12 13:41:26;;;;;;;2.13;1.00;;;10.60;45.60;;;;;;5085092;28;20110;-63
2021/04/12 13:44:04;;;;;;;2.92;1.35;;;10.50;47.50;;;;;;5093339;28;20114;-64
2021/04/12 13:46:53;;;;;;;4.65;1.75;;;10.90;44.80;;;;;;5092827;28;20035;-64
2021/04/12 13:49:34;;;;;;;3.00;1.33;;;11.30;43.50;;;;;;5069022;28;20104;-64
2021/04/12 13:52:11;;;;;;;3.55;1.50;;;11.60;43.50;;;;;;5085636;28;20534;-64
2021/04/12 13:54:43;;;;;;;3.10;1.42;;;11.90;43.50;;;;;;5073835;28;20030;-64
2021/04/12 13:57:46;;;;;;;2.03;1.10;;;11.80;43.10;;;;;;5073687;28;20474;-63
2021/04/12 14:00:26;;;;;;;5.03;1.40;;;11.40;43.50;;;;;;5079004;28;20040;-64
2021/04/12 14:02:57;;;;;;;;;;;10.90;45.00;;;;;;5092413;28;20039;-63
2021/04/12 14:05:31;;;;;;;3.40;1.73;;;10.30;44.60;;;;;;5091183;28;20411;-63
2021/04/12 14:08:21;;;;;;;1.40;1.30;;;9.80;48.30;;;;;;5091917;28;20076;-63
2021/04/12 14:11:17;;;;;;;3.85;1.95;;;9.30;47.10;;;;;;5092430;28;20064;-63
2021/04/12 14:14:02;;;;;;;4.10;1.35;;;8.90;49.20;;;;;;5092014;28;20499;-64
2021/04/12 14:16:32;;;;;;;2.78;1.63;;;8.50;49.20;;;;;;5092266;28;20047;-63
2021/04/12 14:19:13;;;;;;;1.98;1.40;;;8.20;50.80;;;;;;5091779;28;20032;-63
2021/04/12 14:21:46;;;;;;;5.30;1.88;;;8.10;50.10;;;;;;5084637;28;20039;-64
2021/04/12 14:24:25;;;;;;;3.58;1.85;;;8.00;52.10;;;;;;5090570;28;20024;-65
2021/04/12 14:27:06;;;;;;;4.35;1.35;;;7.90;52.80;;;;;;5092754;28;20028;-61